Hlavní strana
METAR-TAF:

METAR-TAF

Letiště :

Mezinárodní letiště Tocumen

Tocumen, Panama

zeměpisná šířka: 09-03N, zeměpisná délka: 079-22W, výška: 45 m

Aktuální stav počasí

Zpráva byla vytvořena před 55 minutami, v 18:00 UTC
Severoseverovýchodní vítr 14 kt
Teplota 32°C
Vlhkost vzduchu 49%
Tlak 1011 hPa
Viditelnost 10 km a více
Polojasno ve výšce 1800 ft

METAR: MPTO 181800Z 03014KT 9999 SCT018 32/20 Q1011 NOSIG

Čas: 13:55 (18:55 UTC)

Předpověď počasí

Zpráva byla vytvořena před 2 hodinami a 40 minutami, v 16:15 UTC
Předpověď platná od 18 v 18 UTC do 19 v 24 UTC
Severoseverovýchodní vítr 15 kt
Viditelnost 10 km a více
Polojasno ve výšce 1800 ft
Změna
od 18 v 23 UTC do 19 v 03 UTC
Severozápadní vítr 6 kt

TAF: MPTO 181615Z 1818/1924 02015KT 9999 SCT018 BECMG 1823/1903 31006KT

Stav a předpovědi počasí z více než 4 000 letišť (zprávy METAR a TAF).

Červené a žluté tečky na mapě představují dostupné meteorologické stanice.

Když kurzor umístíte na tečku, zobrazí se název stanice.

Pak kliknutím zobrazíte stav a předpověď počasí.

Chcete-li změnit mapu, kliknutím na zelené tlačítko se znaménkem +mapu přiblížíte, kliknutím na zelené tlačítko se znaménkem – mapu oddálíte a kliknutím na zelené šipky přejdete na sousední mapy.


METAR-TAF: